Time;durP1;ratioP1;P1;durP2;ratioP2;P2;SDS_P1;SDS_P2;PMS_P1;PMS_P2;Temp;Humidity;BMP_temperature;BMP_pressure;BME280_temperature;BME280_humidity;BME280_pressure;Samples;Min_cycle;Max_cycle;Signal;HPM_P1;HPM_P2
2023/07/07 09:59:50;;;;;;;3.00;2.17;;;;;;;23.47;46.03;99373.38;5031903;28;20588;-79
2023/07/07 10:02:21;;;;;;;4.85;2.67;;;;;;;23.15;45.58;99362.91;5041510;28;20079;-78
2023/07/07 10:04:57;;;;;;;3.35;1.92;;;;;;;23.58;45.86;99365.69;5046646;28;20041;-78
2023/07/07 10:07:24;;;;;;;2.60;2.40;;;;;;;23.68;46.34;99365.34;5047826;28;20038;-80
2023/07/07 10:09:50;;;;;;;3.33;2.38;;;;;;;23.65;45.63;99364.09;5046420;28;20053;-80
2023/07/07 10:12:17;;;;;;;3.28;2.20;;;;;;;23.18;43.42;99354.09;5046116;28;20030;-79
2023/07/07 10:14:43;;;;;;;3.60;2.20;;;;;;;23.34;45.35;99358.00;5042707;28;20029;-78
2023/07/07 10:17:08;;;;;;;3.67;2.42;;;;;;;23.48;45.00;99357.84;5043282;28;20064;-79
2023/07/07 10:19:42;;;;;;;6.35;2.53;;;;;;;23.64;45.51;99348.84;5055430;28;20044;-79
2023/07/07 10:22:11;;;;;;;4.63;2.58;;;;;;;24.23;45.99;99360.81;5045058;28;20101;-78
2023/07/07 10:24:36;;;;;;;2.85;2.55;;;;;;;24.17;45.49;99370.31;5047159;28;20080;-80
2023/07/07 10:27:02;;;;;;;3.53;2.45;;;;;;;24.39;44.27;99356.44;5047853;28;20040;-79
2023/07/07 10:29:33;;;;;;;2.20;2.00;;;;;;;24.50;44.47;99359.59;5043379;28;20141;-80
2023/07/07 10:31:59;;;;;;;5.07;2.53;;;;;;;24.45;44.37;99351.59;5042805;28;20037;-80
2023/07/07 10:34:33;;;;;;;3.60;2.30;;;;;;;24.52;44.10;99362.81;5044541;28;20033;-79
2023/07/07 10:36:59;;;;;;;3.13;2.28;;;;;;;24.19;43.09;99359.88;5052075;28;20029;-80
2023/07/07 10:39:30;;;;;;;2.63;2.42;;;;;;;24.29;43.67;99359.50;5044840;28;20006;-79
2023/07/07 10:41:56;;;;;;;3.78;2.45;;;;;;;24.91;43.51;99353.47;5046234;28;20033;-80
2023/07/07 10:44:27;;;;;;;2.45;2.25;;;;;;;25.28;43.68;99363.53;5045047;28;20025;-80
2023/07/07 10:46:53;;;;;;;4.63;2.45;;;;;;;25.27;43.52;99356.47;5040905;28;20035;-79
2023/07/07 10:49:20;;;;;;;5.80;2.30;;;;;;;25.33;43.47;99359.81;5038835;28;20084;-79
2023/07/07 10:52:36;;;;;;;3.00;2.30;;;;;;;24.96;41.68;99356.84;5045789;28;20029;-79
2023/07/07 10:55:15;;;;;;;4.97;2.78;;;;;;;24.86;42.10;99351.75;4985706;28;20030;-79
2023/07/07 10:58:04;;;;;;;2.63;2.33;;;;;;;25.56;41.96;99340.03;5037081;28;20041;-78
2023/07/07 11:00:51;;;;;;;2.38;1.90;;;;;;;25.79;41.68;99348.69;5041228;28;20021;-80
2023/07/07 11:03:16;;;;;;;4.40;2.20;;;;;;;25.65;40.36;99348.16;5041122;28;20086;-79
2023/07/07 11:05:58;;;;;;;4.07;2.33;;;;;;;25.70;40.56;99342.47;5040824;28;20026;-79
2023/07/07 11:08:36;;;;;;;3.33;2.20;;;;;;;25.70;41.97;99334.28;5060115;28;20059;-80
2023/07/07 11:11:12;;;;;;;4.63;2.08;;;;;;;26.17;41.08;99341.06;5042646;28;20040;-79
2023/07/07 11:13:51;;;;;;;3.88;2.35;;;;;;;25.57;38.19;99344.38;5056799;28;20063;-80
2023/07/07 11:16:23;;;;;;;3.65;2.33;;;;;;;26.42;40.76;99355.59;5044223;28;20465;-78
2023/07/07 11:19:06;;;;;;;2.75;2.38;;;;;;;26.46;40.01;99332.66;5036607;28;20486;-80
2023/07/07 11:22:00;;;;;;;3.03;2.67;;;;;;;26.52;40.08;99333.22;5061969;28;20079;-79
2023/07/07 11:24:50;;;;;;;5.28;2.10;;;;;;;26.01;38.43;99334.63;5036587;28;20116;-80
2023/07/07 11:27:47;;;;;;;3.70;2.38;;;;;;;25.93;38.22;99335.47;5043823;28;20033;-80
2023/07/07 11:30:54;;;;;;;2.78;2.17;;;;;;;26.84;40.01;99342.53;5048810;28;20037;-80
2023/07/07 11:33:22;;;;;;;;;;;;;;;27.00;38.45;99340.66;5037306;28;20105;-79
2023/07/07 11:36:13;;;;;;;3.08;2.47;;;;;;;27.23;38.90;99341.78;5039883;28;19913;-79
2023/07/07 11:38:56;;;;;;;6.60;2.35;;;;;;;27.30;39.54;99331.03;5038279;28;20098;-78
2023/07/07 11:41:30;;;;;;;7.55;2.17;;;;;;;27.44;39.01;99328.72;5039157;28;20029;-80
2023/07/07 11:44:13;;;;;;;6.65;2.42;;;;;;;27.55;38.61;99327.09;5044288;28;20117;-81
2023/07/07 11:46:51;;;;;;;3.92;2.72;;;;;;;27.27;36.29;99328.97;5034873;28;20104;-81
2023/07/07 11:49:44;;;;;;;2.10;2.00;;;;;;;27.52;37.47;99319.56;5035502;28;20041;-79
2023/07/07 11:52:39;;;;;;;2.63;2.10;;;;;;;28.12;37.10;99327.53;5030856;28;20382;-79
2023/07/07 11:55:42;;;;;;;2.70;2.38;;;;;;;28.42;38.24;99316.13;5034987;28;20116;-80
2023/07/07 11:58:22;;;;;;;3.20;2.53;;;;;;;28.35;36.03;99308.50;5047728;28;20021;-80
2023/07/07 12:01:13;;;;;;;4.15;2.28;;;;;;;27.85;36.20;99309.09;5038689;28;20021;-79
2023/07/07 12:03:44;;;;;;;2.65;2.45;;;;;;;27.91;36.87;99299.50;5033574;28;20758;-79
2023/07/07 12:06:15;;;;;;;3.90;2.20;;;;;;;27.62;35.28;99308.09;5034256;28;20108;-80
2023/07/07 12:08:50;;;;;;;5.05;2.88;;;;;;;28.09;35.31;99306.25;5032287;28;20030;-80
2023/07/07 12:11:19;;;;;;;4.75;1.92;;;;;;;28.26;36.01;99309.81;5035283;28;20059;-80
2023/07/07 12:14:26;;;;;;;2.17;1.98;;;;;;;28.71;35.08;99310.97;5030861;28;20033;-79
2023/07/07 12:16:54;;;;;;;3.20;2.70;;;;;;;29.21;38.62;99310.16;5029053;28;20046;-79
2023/07/07 12:19:43;;;;;;;4.32;2.38;;;;;;;29.11;34.64;99302.47;5029937;28;20033;-80
2023/07/07 12:22:21;;;;;;;4.25;2.20;;;;;;;28.66;37.64;99296.69;5031617;28;20029;-80
2023/07/07 12:24:56;;;;;;;5.80;2.22;;;;;;;29.54;35.41;99296.72;5029949;28;20112;-81
2023/07/07 12:27:29;;;;;;;2.63;2.13;;;;;;;29.66;33.89;99291.06;5030989;28;20017;-83
2023/07/07 12:29:57;;;;;;;2.50;2.30;;;;;;;29.15;34.80;99295.09;5035777;28;20037;-81
2023/07/07 12:32:22;;;;;;;2.28;2.08;;;;;;;29.38;35.39;99290.50;5046400;28;20025;-81
2023/07/07 12:35:01;;;;;;;3.47;2.65;;;;;;;28.82;34.68;99289.25;5053577;28;20083;-81
2023/07/07 12:37:26;;;;;;;3.80;2.00;;;;;;;28.48;35.72;99284.47;5055281;28;20032;-81
2023/07/07 12:39:58;;;;;;;2.42;2.10;;;;;;;29.33;35.61;99279.78;5063599;28;20065;-82
2023/07/07 12:42:28;;;;;;;2.53;2.13;;;;;;;29.54;38.94;99284.91;5029487;28;20025;-80
2023/07/07 12:44:54;;;;;;;4.13;2.33;;;;;;;28.86;33.77;99279.13;5032320;28;20032;-80
2023/07/07 12:47:32;;;;;;;2.20;1.88;;;;;;;29.01;33.58;99280.25;5033300;28;20028;-81
2023/07/07 12:50:01;;;;;;;2.15;2.00;;;;;;;29.98;38.34;99280.69;5038702;28;20537;-80
2023/07/07 12:52:35;;;;;;;5.18;2.40;;;;;;;30.11;31.08;99270.28;5042976;28;20029;-81
2023/07/07 12:55:28;;;;;;;2.42;2.22;;;;;;;30.23;32.74;99273.63;5031130;28;20054;-84
2023/07/07 12:58:28;;;;;;;2.83;1.55;;;;;;;30.73;32.71;99272.47;5045932;28;20018;-81
2023/07/07 13:01:15;;;;;;;3.92;2.53;;;;;;;30.09;31.82;99269.84;5030167;28;20399;-82
2023/07/07 13:03:43;;;;;;;3.22;1.73;;;;;;;30.85;35.56;99282.50;5039612;28;20036;-82
2023/07/07 13:06:46;;;;;;;2.90;2.15;;;;;;;31.09;34.34;99282.88;5029017;28;20025;-82
2023/07/07 13:09:18;;;;;;;3.17;2.17;;;;;;;31.02;35.15;99284.75;5007712;28;20042;-81
2023/07/07 13:11:43;;;;;;;2.03;1.83;;;;;;;31.46;35.32;99276.66;5026515;28;20033;-81
2023/07/07 13:14:30;;;;;;;3.38;2.30;;;;;;;31.63;31.01;99270.53;5031445;28;20037;-82
2023/07/07 13:16:58;;;;;;;2.22;1.92;;;;;;;31.53;32.38;99262.94;5048841;28;20026;-81
2023/07/07 13:19:24;;;;;;;1.98;1.70;;;;;;;30.70;29.32;99267.72;5041792;28;20394;-81
2023/07/07 13:21:51;;;;;;;2.10;1.67;;;;;;;31.25;31.22;99262.59;5035493;28;20029;-82
2023/07/07 13:24:20;;;;;;;2.40;2.20;;;;;;;31.63;32.39;99260.31;5035798;28;20038;-83
2023/07/07 13:26:46;;;;;;;3.15;2.33;;;;;;;30.66;30.16;99266.88;5025134;28;20479;-82
2023/07/07 13:29:11;;;;;;;2.70;1.65;;;;;;;31.59;34.94;99264.19;5033693;28;20017;-82
2023/07/07 13:31:39;;;;;;;3.40;1.98;;;;;;;31.74;35.06;99266.72;5032374;28;20033;-81
2023/07/07 13:34:06;;;;;;;4.07;2.53;;;;;;;32.18;31.32;99261.28;5032972;28;20478;-81
2023/07/07 13:36:32;;;;;;;2.00;1.77;;;;;;;32.13;34.57;99260.84;5033326;28;20088;-82
2023/07/07 13:38:57;;;;;;;3.33;2.10;;;;;;;32.36;32.82;99262.22;5049036;28;20025;-83
2023/07/07 13:41:25;;;;;;;3.47;2.13;;;;;;;32.12;34.92;99259.25;5050183;28;20033;-81
2023/07/07 13:43:54;;;;;;;2.88;1.77;;;;;;;32.11;34.69;99266.72;5036681;28;20033;-81
2023/07/07 13:46:25;;;;;;;3.50;1.95;;;;;;;32.28;34.52;99259.78;5044728;28;20036;-82
2023/07/07 13:48:55;;;;;;;4.80;2.00;;;;;;;32.63;30.60;99257.31;5038490;28;20391;-83
2023/07/07 13:51:29;;;;;;;1.92;1.83;;;;;;;33.44;29.92;99263.25;5033371;28;20088;-81
2023/07/07 13:53:55;;;;;;;4.20;1.95;;;;;;;33.19;31.83;99256.84;5044622;28;20025;-81
2023/07/07 13:56:22;;;;;;;5.15;2.45;;;;;;;33.35;30.04;99253.75;5028064;28;20036;-82
2023/07/07 13:58:50;;;;;;;5.35;2.38;;;;;;;33.12;28.62;99256.81;5051914;28;20040;-81
2023/07/07 14:01:39;;;;;;;2.25;2.05;;;;;;;32.86;28.38;99251.50;5052334;28;20441;-82
2023/07/07 14:04:09;;;;;;;4.53;2.75;;;;;;;32.57;33.06;99252.53;5034492;28;20538;-82
2023/07/07 14:06:35;;;;;;;2.85;2.25;;;;;;;32.33;29.56;99249.16;5033851;28;20053;-85
2023/07/07 14:09:00;;;;;;;2.70;2.50;;;;;;;32.48;29.74;99241.81;5047555;28;20029;-81
2023/07/07 14:11:28;;;;;;;3.95;2.10;;;;;;;32.43;28.80;99248.47;5052641;28;20039;-81
2023/07/07 14:13:56;;;;;;;3.92;2.10;;;;;;;32.47;34.21;99243.78;5052086;28;20051;-81
2023/07/07 14:16:44;;;;;;;1.95;1.85;;;;;;;33.14;30.51;99237.84;5039031;28;20031;-82
2023/07/07 14:19:27;;;;;;;3.58;2.13;;;;;;;32.65;28.72;99235.59;5035163;28;20040;-81
2023/07/07 14:21:55;;;;;;;2.42;2.22;;;;;;;32.24;29.75;99223.81;5028866;28;20382;-81
2023/07/07 14:24:30;;;;;;;2.60;2.10;;;;;;;32.59;29.81;99219.75;5035159;28;20029;-79
2023/07/07 14:26:56;;;;;;;1.93;1.83;;;;;;;32.52;33.53;99221.28;5048882;28;20711;-81
2023/07/07 14:29:27;;;;;;;3.38;2.40;;;;;;;32.21;29.31;99224.59;5034655;28;20025;-80
2023/07/07 14:31:57;;;;;;;4.20;2.03;;;;;;;32.12;29.70;99232.41;5032341;28;20497;-79
2023/07/07 14:34:23;;;;;;;4.57;1.92;;;;;;;32.56;29.50;99223.28;5034680;28;20091;-79
2023/07/07 14:36:48;;;;;;;4.63;2.30;;;;;;;32.14;29.08;99226.50;5036429;28;20072;-80
2023/07/07 14:39:26;;;;;;;2.58;2.35;;;;;;;31.33;29.63;99220.91;5047438;28;20496;-79
2023/07/07 14:41:55;;;;;;;3.70;2.40;;;;;;;31.14;29.34;99231.31;5044429;28;20156;-80
2023/07/07 14:44:44;;;;;;;2.25;2.05;;;;;;;32.21;29.90;99221.03;5039361;28;20021;-80
2023/07/07 14:47:19;;;;;;;3.45;2.03;;;;;;;32.66;28.61;99215.06;5042986;28;20037;-80
2023/07/07 14:49:44;;;;;;;5.13;2.67;;;;;;;32.78;29.12;99220.28;5020705;28;20363;-81
2023/07/07 14:52:20;;;;;;;2.53;2.33;;;;;;;33.15;31.72;99220.06;5033936;28;20059;-80
2023/07/07 14:54:48;;;;;;;3.58;2.00;;;;;;;32.57;33.47;99213.81;5040721;28;20097;-81
2023/07/07 14:57:19;;;;;;;3.97;2.08;;;;;;;33.18;30.31;99210.97;5036807;28;20021;-79
2023/07/07 14:59:44;;;;;;;5.93;2.17;;;;;;;32.85;29.53;99205.69;5038395;28;20029;-80
2023/07/07 15:02:28;;;;;;;4.40;2.60;;;;;;;32.99;33.30;99220.41;5031152;28;20112;-79
2023/07/07 15:05:14;;;;;;;2.20;2.00;;;;;;;33.45;33.27;99215.03;5034112;28;20026;-79
2023/07/07 15:07:39;;;;;;;2.28;2.13;;;;;;;33.25;28.10;99202.69;5034316;28;20040;-81
2023/07/07 15:10:07;;;;;;;2.85;2.17;;;;;;;33.55;32.52;99194.91;5034286;28;20025;-80
2023/07/07 15:12:34;;;;;;;3.58;3.17;;;;;;;33.12;28.42;99201.47;5039865;28;20022;-82
2023/07/07 15:14:59;;;;;;;3.70;2.45;;;;;;;32.53;28.10;99194.44;5035342;28;20028;-81
2023/07/07 15:17:25;;;;;;;5.85;2.80;;;;;;;32.07;28.16;99198.81;5034351;28;20045;-83
2023/07/07 15:19:52;;;;;;;2.92;2.30;;;;;;;31.63;29.32;99196.00;5065802;28;20060;-81
2023/07/07 15:22:17;;;;;;;3.85;2.63;;;;;;;32.46;28.99;99197.91;5009504;28;20128;-82
2023/07/07 15:24:43;;;;;;;6.05;2.67;;;;;;;32.97;31.51;99191.50;5023085;28;20120;-81
2023/07/07 15:27:12;;;;;;;2.50;2.25;;;;;;;32.78;27.54;99187.09;5045001;28;20068;-82
2023/07/07 15:29:37;;;;;;;2.88;2.17;;;;;;;33.09;27.89;99191.19;5031849;28;20044;-82
2023/07/07 15:32:12;;;;;;;2.78;2.13;;;;;;;33.12;27.60;99184.88;5047369;28;20025;-82
2023/07/07 15:34:38;;;;;;;3.70;2.50;;;;;;;32.79;30.73;99198.91;5028548;28;20038;-80
2023/07/07 15:37:10;;;;;;;5.18;2.60;;;;;;;32.93;28.83;99185.97;5031319;28;20029;-81
2023/07/07 15:39:35;;;;;;;2.50;2.30;;;;;;;32.92;28.43;99192.66;5021248;28;20433;-79
2023/07/07 15:42:04;;;;;;;2.25;2.05;;;;;;;33.31;28.54;99189.28;5035395;28;20029;-80
2023/07/07 15:44:29;;;;;;;3.53;2.28;;;;;;;33.59;27.88;99181.06;5037066;28;20041;-80
2023/07/07 15:46:54;;;;;;;3.92;1.90;;;;;;;32.66;27.76;99178.31;5037890;28;20482;-80
2023/07/07 15:49:20;;;;;;;3.38;2.28;;;;;;;31.82;29.08;99179.25;5023144;28;20030;-80
2023/07/07 15:51:46;;;;;;;2.50;2.10;;;;;;;31.58;30.62;99174.28;5028979;28;20055;-82
2023/07/07 15:54:12;;;;;;;3.13;2.35;;;;;;;32.20;28.90;99164.19;5046407;28;20043;-82
2023/07/07 15:56:40;;;;;;;4.03;2.35;;;;;;;32.18;29.16;99166.53;5041923;28;20382;-82
2023/07/07 15:59:17;;;;;;;3.30;2.58;;;;;;;31.67;28.93;99170.03;5032980;28;20040;-81
2023/07/07 16:01:44;;;;;;;3.00;2.10;;;;;;;32.21;28.68;99163.00;5044972;28;20551;-82
2023/07/07 16:04:09;;;;;;;2.28;1.90;;;;;;;33.00;33.48;99168.63;5034219;28;20128;-85
2023/07/07 16:06:35;;;;;;;4.53;2.63;;;;;;;31.44;29.79;99169.41;5033064;28;20164;-83
2023/07/07 16:09:00;;;;;;;7.38;2.60;;;;;;;31.21;32.02;99165.19;5031129;28;20096;-83
2023/07/07 16:11:26;;;;;;;5.97;2.83;;;;;;;31.32;31.77;99168.88;5031022;28;20121;-83
2023/07/07 16:13:53;;;;;;;4.57;2.67;;;;;;;31.20;31.92;99141.53;5026811;28;20038;-80
2023/07/07 16:16:20;;;;;;;3.30;2.63;;;;;;;30.58;33.26;99160.44;5025615;28;20171;-79
2023/07/07 16:18:46;;;;;;;4.13;2.65;;;;;;;30.63;33.35;99175.84;5030901;28;20041;-81
2023/07/07 16:21:30;;;;;;;7.57;2.75;;;;;;;30.99;35.71;99164.16;5040410;28;20029;-81
2023/07/07 16:23:55;;;;;;;5.32;2.60;;;;;;;30.96;33.11;99159.38;5031915;28;20034;-80
2023/07/07 16:26:33;;;;;;;2.83;2.45;;;;;;;31.00;33.40;99152.75;5025171;28;20481;-80
2023/07/07 16:28:59;;;;;;;3.40;2.25;;;;;;;31.28;33.80;99160.53;5040887;28;20441;-80
2023/07/07 16:31:27;;;;;;;2.42;2.22;;;;;;;31.15;32.68;99156.44;5025084;28;20033;-80
2023/07/07 16:33:52;;;;;;;3.83;2.40;;;;;;;30.85;33.16;99153.72;5032245;28;20082;-80
2023/07/07 16:36:23;;;;;;;6.07;2.35;;;;;;;30.12;33.48;99150.72;5034481;28;20548;-80
2023/07/07 16:38:50;;;;;;;5.05;2.63;;;;;;;30.00;33.55;99161.91;5026432;28;20033;-80
2023/07/07 16:41:24;;;;;;;3.78;2.65;;;;;;;29.84;33.68;99155.78;5029505;28;20033;-81
2023/07/07 16:43:51;;;;;;;4.88;2.90;;;;;;;29.42;34.95;99159.31;5021649;28;20689;-81
2023/07/07 16:46:19;;;;;;;2.42;2.22;;;;;;;29.26;34.35;99158.63;5031573;28;20092;-80
2023/07/07 16:48:46;;;;;;;5.28;2.47;;;;;;;29.51;34.44;99159.06;5025117;28;20029;-80
2023/07/07 16:51:17;;;;;;;3.55;2.38;;;;;;;29.54;34.48;99148.16;5029846;28;20037;-80
2023/07/07 16:53:42;;;;;;;2.45;2.25;;;;;;;29.24;34.32;99152.72;5032244;28;20032;-81
2023/07/07 16:56:24;;;;;;;3.22;2.35;;;;;;;29.48;35.19;99157.88;5032903;28;20025;-80
2023/07/07 16:58:51;;;;;;;5.88;2.50;;;;;;;28.86;34.88;99149.94;5044324;28;20033;-80
2023/07/07 17:01:17;;;;;;;5.03;2.65;;;;;;;28.71;35.64;99139.81;5037918;28;20052;-83
2023/07/07 17:03:43;;;;;;;3.72;3.17;;;;;;;29.13;35.50;99146.19;5031104;28;20165;-78
2023/07/07 17:06:28;;;;;;;6.53;2.67;;;;;;;28.76;35.50;99145.03;5029497;28;20126;-78
2023/07/07 17:08:55;;;;;;;5.07;2.70;;;;;;;29.08;35.27;99142.91;5030560;28;20029;-77
2023/07/07 17:11:22;;;;;;;4.07;2.60;;;;;;;29.07;35.38;99144.88;5032778;28;20021;-76
2023/07/07 17:13:47;;;;;;;5.82;2.63;;;;;;;28.43;37.77;99136.44;5031537;28;20037;-78
2023/07/07 17:16:17;;;;;;;6.38;2.40;;;;;;;28.47;37.40;99145.53;5030012;28;20112;-78
2023/07/07 17:18:47;;;;;;;2.95;2.60;;;;;;;28.06;36.88;99153.25;5033197;28;20501;-77
2023/07/07 17:21:12;;;;;;;5.80;3.00;;;;;;;28.49;37.14;99148.72;5031295;28;20575;-78
2023/07/07 17:23:37;;;;;;;5.13;2.40;;;;;;;28.81;35.64;99136.50;5029931;28;20021;-78
2023/07/07 17:26:08;;;;;;;4.28;3.08;;;;;;;29.18;35.93;99145.13;5028831;28;20061;-78
2023/07/07 17:28:33;;;;;;;2.75;2.55;;;;;;;28.51;35.65;99138.16;5030820;28;20028;-77
2023/07/07 17:30:58;;;;;;;2.70;2.50;;;;;;;28.44;35.19;99129.81;5030847;28;20037;-77
2023/07/07 17:33:23;;;;;;;3.25;2.75;;;;;;;28.87;35.70;99133.13;5027924;28;20048;-77
2023/07/07 17:35:49;;;;;;;4.47;3.20;;;;;;;28.63;34.66;99135.34;5025893;28;20033;-78
2023/07/07 17:38:14;;;;;;;6.05;2.35;;;;;;;28.35;35.46;99137.44;5032381;28;20482;-77
2023/07/07 17:40:42;;;;;;;4.03;2.50;;;;;;;28.55;34.96;99130.81;5034633;28;20500;-77
2023/07/07 17:43:07;;;;;;;3.85;2.65;;;;;;;28.06;35.30;99125.00;5037766;28;20032;-77
2023/07/07 17:45:33;;;;;;;3.08;2.40;;;;;;;27.86;36.23;99139.78;5034089;28;20033;-76
2023/07/07 17:47:58;;;;;;;3.30;2.38;;;;;;;27.77;36.00;99134.47;5031959;28;20029;-77
2023/07/07 17:50:36;;;;;;;5.50;3.13;;;;;;;27.37;36.79;99131.09;5034382;28;20024;-77
2023/07/07 17:53:01;;;;;;;5.95;3.45;;;;;;;27.63;37.26;99134.13;5029402;28;20038;-77
2023/07/07 17:55:27;;;;;;;5.25;2.70;;;;;;;27.54;36.83;99141.75;5034923;28;20030;-77
2023/07/07 17:57:52;;;;;;;7.18;3.00;;;;;;;26.93;36.45;99132.22;5035993;28;20041;-77
2023/07/07 18:00:29;;;;;;;6.50;3.30;;;;;;;27.21;36.97;99139.28;5038299;28;20485;-76
2023/07/07 18:02:56;;;;;;;4.13;2.47;;;;;;;27.39;37.79;99123.34;5028995;28;20150;-77
2023/07/07 18:05:21;;;;;;;4.50;2.72;;;;;;;27.50;37.90;99131.84;5027239;28;20017;-76
2023/07/07 18:07:47;;;;;;;5.25;2.60;;;;;;;27.19;38.06;99127.06;5036053;28;20033;-76
2023/07/07 18:10:25;;;;;;;3.50;2.90;;;;;;;26.99;38.93;99131.63;5026211;28;20071;-76
2023/07/07 18:12:53;;;;;;;3.38;3.00;;;;;;;26.22;38.50;99132.84;5027204;28;20033;-77
2023/07/07 18:15:19;;;;;;;9.13;3.42;;;;;;;26.34;38.67;99132.81;5032319;28;20587;-76
2023/07/07 18:17:45;;;;;;;6.20;3.40;;;;;;;26.34;39.18;99132.03;5035232;28;20060;-76
2023/07/07 18:20:20;;;;;;;5.93;3.03;;;;;;;26.27;39.58;99129.88;5032905;28;20060;-76
2023/07/07 18:22:46;;;;;;;6.43;3.33;;;;;;;25.89;40.09;99137.59;5033403;28;20064;-76
2023/07/07 18:25:11;;;;;;;4.82;4.10;;;;;;;25.89;40.72;99135.69;5030771;28;20068;-77
2023/07/07 18:27:37;;;;;;;4.90;3.00;;;;;;;25.97;40.98;99144.94;5033914;28;20037;-77
2023/07/07 18:30:27;;;;;;;3.00;2.80;;;;;;;26.08;40.62;99140.56;5031562;28;20040;-77
2023/07/07 18:32:52;;;;;;;4.40;2.88;;;;;;;25.92;41.19;99145.16;5028568;28;20036;-77
2023/07/07 18:35:18;;;;;;;3.83;2.40;;;;;;;26.17;40.85;99137.75;5034335;28;20033;-76
2023/07/07 18:37:43;;;;;;;3.35;2.85;;;;;;;26.64;40.32;99131.38;5037472;28;20529;-77
2023/07/07 18:40:18;;;;;;;2.92;2.63;;;;;;;26.67;40.56;99135.34;5029471;28;20026;-77
2023/07/07 18:42:43;;;;;;;4.18;3.00;;;;;;;26.66;40.90;99134.56;5037940;28;20048;-77
2023/07/07 18:45:09;;;;;;;4.85;3.08;;;;;;;26.69;41.12;99133.84;5034220;28;20026;-77
2023/07/07 18:47:34;;;;;;;4.40;3.08;;;;;;;26.77;41.20;99126.69;5036488;28;20556;-78
2023/07/07 18:50:11;;;;;;;4.18;3.25;;;;;;;26.76;41.46;99129.78;5035588;28;20536;-77
2023/07/07 18:52:37;;;;;;;5.22;2.95;;;;;;;26.65;41.74;99138.44;5040064;28;20041;-78
2023/07/07 18:55:02;;;;;;;9.15;3.13;;;;;;;26.54;42.09;99134.59;5037516;28;20029;-78
2023/07/07 18:57:27;;;;;;;4.82;2.70;;;;;;;26.45;42.92;99144.09;5028769;28;20482;-77
2023/07/07 18:59:53;;;;;;;5.22;2.78;;;;;;;26.32;43.28;99139.78;5045246;28;20037;-78
2023/07/07 19:02:18;;;;;;;5.38;2.90;;;;;;;26.25;43.84;99145.03;5049426;28;20039;-77
2023/07/07 19:04:44;;;;;;;4.68;2.72;;;;;;;26.15;44.45;99153.69;5044872;28;20036;-77
2023/07/07 19:07:09;;;;;;;4.93;3.05;;;;;;;26.01;44.55;99151.31;5037105;28;20021;-77
2023/07/07 19:09:34;;;;;;;5.65;3.33;;;;;;;25.90;45.24;99156.44;5036511;28;20552;-77
2023/07/07 19:12:00;;;;;;;3.88;3.10;;;;;;;25.76;45.25;99155.97;5039059;28;20113;-77
2023/07/07 19:14:25;;;;;;;6.78;3.55;;;;;;;25.64;45.64;99152.41;5027531;28;20038;-77
2023/07/07 19:16:52;;;;;;;4.80;3.55;;;;;;;25.61;45.73;99158.56;5032838;28;20034;-77
2023/07/07 19:19:26;;;;;;;4.47;2.97;;;;;;;25.49;45.96;99150.34;5034395;28;20391;-77
2023/07/07 19:21:51;;;;;;;7.03;3.45;;;;;;;25.31;45.95;99155.94;5038132;28;20029;-78
2023/07/07 19:24:17;;;;;;;5.03;3.08;;;;;;;25.17;46.56;99154.66;5034435;28;20035;-77
2023/07/07 19:26:50;;;;;;;5.18;2.85;;;;;;;25.18;46.51;99157.03;5033968;28;20056;-77
2023/07/07 19:29:16;;;;;;;10.00;3.45;;;;;;;25.04;46.63;99156.56;5028686;28;20055;-78
2023/07/07 19:31:41;;;;;;;4.47;2.70;;;;;;;25.00;46.83;99158.38;5030022;28;20486;-78
2023/07/07 19:34:07;;;;;;;4.70;2.78;;;;;;;24.93;46.74;99163.56;5039308;28;20034;-78
2023/07/07 19:36:36;;;;;;;6.25;4.07;;;;;;;24.83;47.11;99168.63;5037644;28;20038;-78
2023/07/07 19:39:11;;;;;;;3.92;2.60;;;;;;;24.61;47.24;99158.03;5029135;28;20033;-78
2023/07/07 19:41:36;;;;;;;5.25;3.17;;;;;;;24.61;47.66;99164.28;5030504;28;20033;-78
2023/07/07 19:44:01;;;;;;;3.58;2.90;;;;;;;24.57;47.47;99163.34;5030635;28;20367;-78
2023/07/07 19:46:32;;;;;;;5.20;2.88;;;;;;;24.47;47.49;99169.19;5032588;28;20517;-77
2023/07/07 19:48:59;;;;;;;4.05;2.90;;;;;;;24.34;48.11;99171.06;5023978;28;20036;-78
2023/07/07 19:51:32;;;;;;;5.72;3.10;;;;;;;24.27;48.02;99167.22;5030585;28;20037;-78
2023/07/07 19:53:59;;;;;;;5.82;3.10;;;;;;;24.22;48.00;99173.69;5030985;28;20025;-78
2023/07/07 19:56:26;;;;;;;5.53;3.35;;;;;;;24.14;48.39;99177.25;5035905;28;20038;-78
2023/07/07 19:58:54;;;;;;;6.72;2.97;;;;;;;24.04;48.36;99176.81;5030988;28;20032;-78
2023/07/07 20:01:23;;;;;;;3.38;2.92;;;;;;;23.97;48.78;99174.59;5030492;28;20025;-78
2023/07/07 20:03:49;;;;;;;3.60;3.00;;;;;;;23.83;48.89;99176.72;5025826;28;20041;-78
2023/07/07 20:06:18;;;;;;;4.72;2.75;;;;;;;23.76;49.12;99176.47;5028691;28;20501;-79
2023/07/07 20:08:43;;;;;;;5.10;2.55;;;;;;;23.76;49.27;99182.69;5031097;28;20104;-79
2023/07/07 20:11:16;;;;;;;5.15;3.22;;;;;;;23.73;49.36;99183.38;5028764;28;20454;-77
2023/07/07 20:13:42;;;;;;;7.50;3.25;;;;;;;23.63;49.76;99191.09;5031002;28;20057;-78
2023/07/07 20:16:18;;;;;;;5.30;3.63;;;;;;;23.52;49.79;99184.41;5026945;28;20060;-79
2023/07/07 20:18:44;;;;;;;5.72;3.10;;;;;;;23.46;50.35;99189.19;5036860;28;20029;-78
2023/07/07 20:21:09;;;;;;;6.80;3.40;;;;;;;23.36;50.54;99189.56;5033136;28;20091;-78
2023/07/07 20:23:34;;;;;;;5.35;3.53;;;;;;;23.36;50.72;99192.28;5029296;28;20040;-78
2023/07/07 20:26:00;;;;;;;7.38;3.53;;;;;;;23.18;50.91;99187.94;5029658;28;20041;-78
2023/07/07 20:28:25;;;;;;;13.90;4.00;;;;;;;23.15;51.25;99187.81;5030357;28;20037;-80
2023/07/07 20:30:51;;;;;;;8.23;3.78;;;;;;;23.09;51.49;99185.22;5029512;28;20114;-78
2023/07/07 20:33:16;;;;;;;5.78;3.63;;;;;;;23.08;51.48;99188.28;5034315;28;20060;-78
2023/07/07 20:35:42;;;;;;;4.32;2.67;;;;;;;22.98;51.69;99188.59;5032576;28;20044;-78
2023/07/07 20:38:11;;;;;;;6.32;3.30;;;;;;;22.83;51.96;99189.88;5030911;28;20108;-78
2023/07/07 20:40:40;;;;;;;7.20;3.28;;;;;;;22.84;52.00;99188.78;5027706;28;20037;-78
2023/07/07 20:43:07;;;;;;;7.80;3.80;;;;;;;22.81;52.16;99194.84;5030265;28;20732;-78
2023/07/07 20:45:34;;;;;;;8.18;3.75;;;;;;;22.80;52.56;99185.06;5033107;28;20029;-77
2023/07/07 20:47:59;;;;;;;11.82;4.25;;;;;;;22.69;52.79;99185.72;5026429;28;20034;-78
2023/07/07 20:50:30;;;;;;;3.75;3.30;;;;;;;22.68;52.79;99190.38;5029047;28;20037;-78
2023/07/07 20:52:55;;;;;;;10.55;4.00;;;;;;;22.68;52.78;99189.56;5030145;28;20432;-79
2023/07/07 20:55:21;;;;;;;14.13;4.65;;;;;;;22.69;52.79;99196.63;5049629;28;20037;-79
2023/07/07 20:57:48;;;;;;;4.50;3.20;;;;;;;22.60;52.96;99199.34;5028659;28;20037;-79
2023/07/07 21:00:22;;;;;;;6.20;4.10;;;;;;;21.84;55.52;99210.75;5029759;28;20030;-79
2023/07/07 21:02:49;;;;;;;5.97;3.70;;;;;;;22.38;53.98;99205.66;5025498;28;20120;-78
2023/07/07 21:05:15;;;;;;;4.80;3.10;;;;;;;22.43;53.82;99212.88;5030566;28;20060;-78
2023/07/07 21:07:41;;;;;;;4.97;3.47;;;;;;;22.40;53.71;99199.91;5029618;28;20102;-77
2023/07/07 21:10:24;;;;;;;7.05;3.67;;;;;;;22.41;54.07;99206.16;5021936;28;20365;-77
2023/07/07 21:12:54;;;;;;;6.63;4.05;;;;;;;22.31;53.96;99210.75;5029409;28;20032;-78
2023/07/07 21:15:22;;;;;;;12.15;4.28;;;;;;;22.26;54.17;99204.66;5026738;28;20095;-77
2023/07/07 21:17:48;;;;;;;6.97;3.85;;;;;;;22.18;54.59;99205.44;5029449;28;20044;-78
2023/07/07 21:20:19;;;;;;;7.90;4.05;;;;;;;22.19;54.38;99216.00;5032853;28;20025;-78
2023/07/07 21:22:45;;;;;;;5.78;4.35;;;;;;;22.13;54.47;99211.81;5045411;28;20025;-78
2023/07/07 21:25:10;;;;;;;8.00;3.70;;;;;;;22.13;54.23;99209.09;5036384;28;20037;-78
2023/07/07 21:27:36;;;;;;;6.10;3.15;;;;;;;22.06;54.36;99208.75;5027498;28;20033;-78
2023/07/07 21:30:12;;;;;;;7.90;4.03;;;;;;;22.04;54.59;99210.97;5027055;28;20041;-78
2023/07/07 21:32:37;;;;;;;3.50;3.13;;;;;;;21.93;54.76;99215.09;5025314;28;20033;-77
2023/07/07 21:35:02;;;;;;;3.75;3.38;;;;;;;21.89;54.79;99221.47;5025532;28;20402;-78
2023/07/07 21:37:28;;;;;;;4.15;3.60;;;;;;;21.81;54.99;99214.06;5029705;28;20041;-77
2023/07/07 21:39:53;;;;;;;5.45;3.50;;;;;;;21.94;54.71;99226.78;5027248;28;20041;-77
2023/07/07 21:42:18;;;;;;;7.90;3.30;;;;;;;21.86;54.66;99217.50;5029279;28;20039;-78
2023/07/07 21:44:44;;;;;;;3.95;3.55;;;;;;;21.68;55.22;99221.19;5028087;28;20033;-78
2023/07/07 21:47:14;;;;;;;4.57;3.15;;;;;;;21.53;55.65;99227.03;5029175;28;20074;-78
2023/07/07 21:49:39;;;;;;;15.13;5.38;;;;;;;21.65;55.17;99221.81;5035870;28;20049;-78